createdAt,value
2017-10-30T00:01:15.682Z,96.00
2017-10-30T00:03:45.106Z,96.10
2017-10-30T00:06:15.154Z,96.30
2017-10-30T00:08:44.418Z,96.30
2017-10-30T00:11:14.249Z,96.30
2017-10-30T00:13:44.277Z,96.60
2017-10-30T00:16:13.680Z,96.60
2017-10-30T00:18:43.771Z,97.00
2017-10-30T00:21:13.099Z,97.00
2017-10-30T00:23:43.101Z,97.10
2017-10-30T00:26:12.504Z,97.10
2017-10-30T00:28:41.754Z,97.20
2017-10-30T00:31:10.992Z,97.10
2017-10-30T00:33:40.235Z,97.20
2017-10-30T00:36:09.483Z,97.20
2017-10-30T00:38:38.994Z,97.40
2017-10-30T00:41:08.303Z,97.40
2017-10-30T00:43:37.539Z,97.50
2017-10-30T00:46:06.798Z,97.60
2017-10-30T00:48:36.055Z,97.80
2017-10-30T00:51:05.295Z,97.80
2017-10-30T00:53:34.810Z,97.80
2017-10-30T00:56:04.043Z,97.90
2017-10-30T00:58:33.452Z,97.90
2017-10-30T01:01:02.675Z,98.00
2017-10-30T01:03:31.934Z,98.20
2017-10-30T01:06:01.196Z,98.10
2017-10-30T01:08:30.623Z,98.20
2017-10-30T01:11:00.647Z,97.90
2017-10-30T01:13:29.884Z,97.90
2017-10-30T01:15:59.183Z,97.80
2017-10-30T01:18:28.406Z,97.80
2017-10-30T01:20:57.649Z,98.00
2017-10-30T01:23:26.906Z,98.10
2017-10-30T01:25:56.277Z,98.40
2017-10-30T01:28:25.522Z,98.30
2017-10-30T01:30:54.782Z,98.30
2017-10-30T01:33:24.214Z,98.10
2017-10-30T01:35:53.473Z,98.10
2017-10-30T01:38:22.702Z,98.30
2017-10-30T01:40:51.974Z,98.30
2017-10-30T01:43:22.134Z,98.50
2017-10-30T01:45:51.379Z,98.50
2017-10-30T01:48:20.666Z,98.30
2017-10-30T01:50:49.921Z,98.30
2017-10-30T01:53:19.169Z,98.20
2017-10-30T01:55:48.423Z,98.30
2017-10-30T01:58:17.670Z,98.50
2017-10-30T02:00:46.919Z,98.80
2017-10-30T02:03:17.003Z,98.90
2017-10-30T02:05:46.270Z,98.90
2017-10-30T02:08:15.571Z,98.80
2017-10-30T02:10:44.842Z,98.80
2017-10-30T02:13:14.100Z,98.70
2017-10-30T02:15:43.326Z,98.70
2017-10-30T02:18:12.702Z,99.10
2017-10-30T02:20:41.942Z,99.10
2017-10-30T02:23:11.200Z,99.50
2017-10-30T02:25:40.432Z,99.10
2017-10-30T02:28:09.678Z,99.10
2017-10-30T02:30:39.337Z,99.10
2017-10-30T02:33:08.593Z,99.00
2017-10-30T02:35:37.838Z,99.00
2017-10-30T02:38:07.227Z,99.30
2017-10-30T02:40:36.471Z,99.40
2017-10-30T02:43:05.713Z,99.50
2017-10-30T02:45:34.959Z,99.50
2017-10-30T02:48:04.239Z,99.40
2017-10-30T02:50:33.489Z,99.30
2017-10-30T02:53:02.712Z,99.50
2017-10-30T02:55:32.011Z,99.40
2017-10-30T02:58:01.247Z,99.40
2017-10-30T03:00:30.506Z,99.20
2017-10-30T03:03:01.278Z,99.20
2017-10-30T03:05:30.521Z,99.20
2017-10-30T03:07:59.761Z,99.30
2017-10-30T03:10:29.794Z,99.00
2017-10-30T03:12:59.061Z,99.00
2017-10-30T03:15:28.372Z,98.80
2017-10-30T03:17:57.638Z,98.50
2017-10-30T03:20:26.881Z,98.60
2017-10-30T03:22:56.303Z,98.40
2017-10-30T03:25:25.688Z,98.70
2017-10-30T03:27:54.912Z,98.40
2017-10-30T03:30:24.852Z,98.50
2017-10-30T03:32:54.194Z,98.50
2017-10-30T03:35:23.464Z,98.60
2017-10-30T03:37:52.678Z,98.80
2017-10-30T03:40:21.920Z,98.50
2017-10-30T03:42:51.946Z,98.50
2017-10-30T03:45:21.223Z,98.50
2017-10-30T03:47:51.244Z,98.80
2017-10-30T03:50:21.275Z,98.90
2017-10-30T03:52:50.698Z,98.80
2017-10-30T03:55:19.942Z,98.90
2017-10-30T03:57:49.462Z,98.90
2017-10-30T04:00:18.699Z,99.00
2017-10-30T04:02:47.945Z,99.40
2017-10-30T04:05:17.347Z,99.50
2017-10-30T04:07:46.757Z,99.50
2017-10-30T04:10:16.037Z,99.80
2017-10-30T04:12:45.474Z,99.90
2017-10-30T04:15:14.727Z,99.90
2017-10-30T04:17:44.074Z,99.90
2017-10-30T04:20:14.206Z,99.90
2017-10-30T04:22:44.214Z,99.90
2017-10-30T04:25:13.623Z,99.90
2017-10-30T04:27:43.670Z,99.90
2017-10-30T04:30:12.919Z,99.90
2017-10-30T04:32:42.278Z,99.90
2017-10-30T04:35:11.546Z,99.90
2017-10-30T04:37:40.792Z,99.90
2017-10-30T04:40:10.044Z,99.90
2017-10-30T04:42:39.299Z,99.90
2017-10-30T04:45:08.556Z,99.90
2017-10-30T04:47:37.796Z,99.90
2017-10-30T04:50:07.054Z,99.90
2017-10-30T04:52:36.691Z,99.90
2017-10-30T04:55:06.035Z,99.90
2017-10-30T04:57:35.298Z,99.90
2017-10-30T05:00:04.566Z,99.90
2017-10-30T05:02:33.997Z,99.90
2017-10-30T05:05:03.979Z,99.90
2017-10-30T05:07:34.741Z,99.90
2017-10-30T05:10:03.990Z,99.90
2017-10-30T05:12:33.290Z,99.90
2017-10-30T05:15:02.649Z,99.90
2017-10-30T05:17:31.950Z,99.90
2017-10-30T05:20:01.175Z,99.90
2017-10-30T05:22:30.416Z,99.90
2017-10-30T05:24:59.724Z,99.90
2017-10-30T05:27:29.026Z,99.90
2017-10-30T05:29:58.330Z,99.80
2017-10-30T05:32:28.362Z,99.80
2017-10-30T05:34:57.611Z,99.80
2017-10-30T05:37:26.863Z,99.20
2017-10-30T05:39:56.346Z,99.30
2017-10-30T05:42:25.670Z,99.50
2017-10-30T05:44:55.713Z,98.40
2017-10-30T05:47:24.973Z,98.30
2017-10-30T05:49:55.754Z,98.40
2017-10-30T05:52:24.999Z,98.40
2017-10-30T05:54:54.247Z,98.20
2017-10-30T05:57:23.517Z,98.00
2017-10-30T05:59:53.608Z,97.30
2017-10-30T06:02:22.856Z,97.30
2017-10-30T06:04:52.093Z,97.70
2017-10-30T06:07:21.358Z,97.90
2017-10-30T06:09:50.609Z,97.70
2017-10-30T06:12:20.604Z,97.70
2017-10-30T06:14:49.865Z,97.90
2017-10-30T06:17:19.870Z,97.30
2017-10-30T06:19:49.254Z,97.30
2017-10-30T06:22:18.803Z,97.30
2017-10-30T06:24:48.201Z,97.40
2017-10-30T06:27:17.594Z,97.40
2017-10-30T06:29:47.692Z,97.30
2017-10-30T06:32:16.939Z,97.20
2017-10-30T06:34:46.203Z,97.00
2017-10-30T06:37:15.458Z,96.80
2017-10-30T06:39:44.711Z,96.40
2017-10-30T06:42:13.938Z,96.60
2017-10-30T06:44:43.269Z,96.60
2017-10-30T06:47:12.551Z,96.00
2017-10-30T06:49:41.806Z,95.60
2017-10-30T06:52:11.082Z,94.70
2017-10-30T06:54:41.154Z,94.00
2017-10-30T06:57:11.198Z,93.80
2017-10-30T06:59:40.483Z,93.80
2017-10-30T07:02:34.507Z,93.70
2017-10-30T07:05:03.764Z,93.10
2017-10-30T07:07:33.026Z,93.40
2017-10-30T07:10:02.286Z,93.10
2017-10-30T07:12:31.560Z,93.00
2017-10-30T07:15:00.815Z,92.90
2017-10-30T07:17:31.602Z,92.60
2017-10-30T07:20:01.489Z,92.60
2017-10-30T07:22:30.902Z,92.30
2017-10-30T07:25:01.022Z,91.60
2017-10-30T07:27:31.102Z,86.50
2017-10-30T07:30:00.379Z,86.40
2017-10-30T07:32:29.638Z,79.20
2017-10-30T07:34:59.055Z,70.40
2017-10-30T07:37:29.359Z,76.50
2017-10-30T07:39:58.658Z,76.50
2017-10-30T07:42:28.706Z,82.70
2017-10-30T07:44:58.286Z,82.50
2017-10-30T07:47:27.582Z,84.80
2017-10-30T07:49:56.874Z,86.40
2017-10-30T07:52:26.116Z,85.90
2017-10-30T07:54:55.995Z,86.40
2017-10-30T07:57:25.242Z,86.10
2017-10-30T07:59:54.486Z,86.50
2017-10-30T08:02:24.515Z,86.30
2017-10-30T08:04:53.772Z,85.90
2017-10-30T08:07:23.031Z,85.50
2017-10-30T08:09:53.071Z,83.60
2017-10-30T08:12:22.376Z,83.60
2017-10-30T08:14:51.622Z,84.00
2017-10-30T08:17:20.895Z,82.20
2017-10-30T08:19:50.163Z,82.10
2017-10-30T08:22:19.560Z,80.90
2017-10-30T08:24:48.835Z,78.60
2017-10-30T08:27:18.081Z,79.10
2017-10-30T08:29:47.564Z,74.00
2017-10-30T08:32:17.591Z,72.10
2017-10-30T08:34:47.160Z,72.10
2017-10-30T08:37:16.538Z,68.90
2017-10-30T08:39:45.805Z,64.20
2017-10-30T08:42:15.906Z,64.20
2017-10-30T08:44:45.328Z,64.10
2017-10-30T08:47:14.751Z,61.60
2017-10-30T08:49:44.282Z,62.50
2017-10-30T08:52:13.729Z,63.40
2017-10-30T08:54:43.066Z,63.40
2017-10-30T08:57:12.526Z,64.60
2017-10-30T08:59:42.560Z,64.40
2017-10-30T09:02:11.823Z,63.70
2017-10-30T09:04:41.098Z,62.20
2017-10-30T09:07:10.378Z,61.90
2017-10-30T09:09:39.634Z,57.70
2017-10-30T09:12:08.919Z,56.80
2017-10-30T09:14:38.167Z,54.70
2017-10-30T09:17:07.539Z,48.40
2017-10-30T09:19:36.794Z,47.10
2017-10-30T09:22:06.059Z,45.10
2017-10-30T09:24:35.470Z,59.40
2017-10-30T09:27:05.495Z,56.90
2017-10-30T09:29:34.759Z,62.50
2017-10-30T09:32:05.527Z,47.80
2017-10-30T09:34:34.802Z,48.90
2017-10-30T09:37:04.195Z,47.20
2017-10-30T09:39:33.454Z,46.80
2017-10-30T09:42:02.747Z,41.90
2017-10-30T09:44:31.998Z,39.00
2017-10-30T09:47:01.265Z,39.80
2017-10-30T09:49:30.575Z,38.80
2017-10-30T09:51:59.862Z,42.40
2017-10-30T09:54:29.241Z,44.60
2017-10-30T09:56:58.763Z,50.70
2017-10-30T09:59:28.026Z,55.20
2017-10-30T10:01:57.292Z,56.80
2017-10-30T10:04:27.408Z,56.00
2017-10-30T10:06:56.701Z,53.50
2017-10-30T10:09:25.970Z,49.80
2017-10-30T10:11:56.003Z,51.90
2017-10-30T10:14:25.308Z,51.40
2017-10-30T10:16:55.347Z,53.30
2017-10-30T10:19:24.658Z,53.50
2017-10-30T10:21:53.928Z,55.20
2017-10-30T10:24:23.214Z,55.10
2017-10-30T10:26:52.434Z,56.40
2017-10-30T10:29:21.710Z,55.70
2017-10-30T10:31:51.133Z,56.10
2017-10-30T10:34:20.429Z,58.50
2017-10-30T10:36:49.690Z,58.70
2017-10-30T10:39:18.998Z,59.80
2017-10-30T10:41:49.039Z,64.00
2017-10-30T10:44:18.630Z,64.40
2017-10-30T10:46:48.658Z,64.50
2017-10-30T10:49:17.935Z,65.10
2017-10-30T10:51:47.478Z,63.30
2017-10-30T10:54:16.742Z,61.90
2017-10-30T10:56:46.110Z,61.10
2017-10-30T10:59:15.390Z,56.80
2017-10-30T11:01:44.771Z,53.00
2017-10-30T11:04:14.805Z,49.30
2017-10-30T11:06:44.081Z,49.80
2017-10-30T11:09:13.396Z,47.00
2017-10-30T11:11:42.985Z,46.00
2017-10-30T11:14:13.041Z,45.70
2017-10-30T11:16:42.296Z,46.00
2017-10-30T11:19:11.639Z,45.70
2017-10-30T11:21:40.944Z,44.40
2017-10-30T11:24:10.192Z,44.20
2017-10-30T11:26:39.464Z,45.10
2017-10-30T11:29:08.737Z,46.60
2017-10-30T11:31:38.775Z,49.20
2017-10-30T11:34:08.039Z,50.20
2017-10-30T11:36:37.444Z,51.10
2017-10-30T11:39:07.478Z,47.00
2017-10-30T11:41:36.758Z,47.20
2017-10-30T11:44:06.032Z,45.50
2017-10-30T11:46:35.299Z,46.40
2017-10-30T11:49:04.571Z,47.30
2017-10-30T11:51:34.686Z,50.40
2017-10-30T11:54:04.725Z,47.70
2017-10-30T11:56:33.976Z,48.90
2017-10-30T11:59:03.233Z,46.40
2017-10-30T12:01:32.485Z,46.00
2017-10-30T12:04:01.781Z,47.00
2017-10-30T12:06:31.121Z,46.90
2017-10-30T12:09:01.160Z,48.00
2017-10-30T12:11:30.426Z,49.00
2017-10-30T12:13:59.676Z,48.70
2017-10-30T12:16:29.170Z,46.90
2017-10-30T12:18:58.659Z,45.50
2017-10-30T12:21:28.008Z,46.80
2017-10-30T12:23:57.298Z,47.50
2017-10-30T12:26:26.564Z,47.90
2017-10-30T12:28:56.623Z,49.10
2017-10-30T12:31:26.035Z,50.20
2017-10-30T12:33:55.428Z,50.70
2017-10-30T12:36:24.670Z,52.20
2017-10-30T12:38:54.194Z,53.90
2017-10-30T12:41:23.473Z,52.70
2017-10-30T12:43:52.747Z,54.80
2017-10-30T12:46:22.006Z,55.20
2017-10-30T12:48:51.285Z,55.70
2017-10-30T12:51:20.551Z,56.10
2017-10-30T12:53:49.842Z,57.40
2017-10-30T12:56:19.115Z,60.00
2017-10-30T12:58:49.355Z,60.90
2017-10-30T13:01:18.832Z,61.00
2017-10-30T13:03:48.839Z,60.40
2017-10-30T13:06:18.118Z,61.60
2017-10-30T13:08:47.498Z,63.20
2017-10-30T13:11:16.734Z,63.60
2017-10-30T13:13:46.024Z,62.80
2017-10-30T13:16:15.287Z,65.00
2017-10-30T13:18:44.534Z,65.50
2017-10-30T13:21:13.822Z,64.60
2017-10-30T13:23:43.089Z,65.20
2017-10-30T13:26:12.360Z,65.60
2017-10-30T13:28:41.616Z,64.30
2017-10-30T13:31:10.867Z,63.00
2017-10-30T13:33:40.740Z,63.60
2017-10-30T13:36:09.987Z,63.00
2017-10-30T13:38:39.316Z,63.30
2017-10-30T13:41:08.545Z,63.80
2017-10-30T13:43:37.834Z,62.20
2017-10-30T13:46:07.090Z,63.70
2017-10-30T13:48:36.359Z,64.70
2017-10-30T13:51:05.644Z,65.00
2017-10-30T13:53:34.901Z,66.00
2017-10-30T13:56:04.233Z,65.60
2017-10-30T13:58:33.491Z,65.10
2017-10-30T14:01:02.782Z,66.00
2017-10-30T14:03:32.910Z,65.80
2017-10-30T14:06:02.226Z,66.20
2017-10-30T14:08:31.724Z,64.80
2017-10-30T14:11:01.031Z,64.20
2017-10-30T14:13:30.286Z,64.00
2017-10-30T14:15:59.600Z,64.20
2017-10-30T14:18:29.614Z,64.20
2017-10-30T14:20:58.967Z,65.10
2017-10-30T14:23:28.327Z,64.40
2017-10-30T14:25:58.363Z,63.50
2017-10-30T14:28:27.606Z,63.80
2017-10-30T14:30:56.874Z,63.90
2017-10-30T14:33:26.181Z,63.80
2017-10-30T14:35:55.414Z,63.40
2017-10-30T14:38:24.734Z,63.70
2017-10-30T14:40:54.613Z,64.50
2017-10-30T14:43:23.979Z,65.20
2017-10-30T14:45:54.001Z,64.80
2017-10-30T14:48:23.323Z,65.40
2017-10-30T14:50:52.886Z,65.50
2017-10-30T14:53:23.174Z,65.10
2017-10-30T14:55:52.527Z,65.90
2017-10-30T14:58:22.643Z,64.30
2017-10-30T15:00:52.681Z,65.90
2017-10-30T15:03:22.066Z,66.80
2017-10-30T15:05:52.305Z,65.70
2017-10-30T15:08:21.536Z,66.00
2017-10-30T15:10:50.803Z,67.20
2017-10-30T15:13:20.056Z,67.50
2017-10-30T15:15:49.326Z,67.90
2017-10-30T15:18:19.552Z,67.60
2017-10-30T15:20:48.839Z,66.80
2017-10-30T15:23:18.082Z,68.00
2017-10-30T15:25:47.364Z,67.30
2017-10-30T15:28:16.695Z,67.60
2017-10-30T15:30:45.956Z,67.60
2017-10-30T15:33:15.232Z,69.80
2017-10-30T15:35:44.478Z,69.50
2017-10-30T15:38:13.734Z,69.70
2017-10-30T15:40:43.018Z,70.10
2017-10-30T15:43:13.123Z,70.20
2017-10-30T15:45:43.181Z,70.50
2017-10-30T15:48:12.438Z,70.60
2017-10-30T15:50:41.738Z,71.10
2017-10-30T15:53:10.997Z,70.00
2017-10-30T15:55:40.238Z,69.70
2017-10-30T15:58:09.533Z,70.20
2017-10-30T16:00:38.776Z,70.60
2017-10-30T16:03:08.069Z,72.50
2017-10-30T16:05:37.334Z,72.20
2017-10-30T16:08:06.765Z,72.90
2017-10-30T16:10:36.803Z,73.40
2017-10-30T16:13:06.514Z,73.30
2017-10-30T16:15:35.759Z,74.00
2017-10-30T16:18:05.013Z,76.80
2017-10-30T16:20:34.360Z,78.60
2017-10-30T16:23:03.618Z,79.80
2017-10-30T16:25:32.884Z,81.50
2017-10-30T16:28:02.146Z,82.20
2017-10-30T16:30:31.451Z,82.70
2017-10-30T16:33:00.739Z,84.30
2017-10-30T16:35:30.004Z,84.60
2017-10-30T16:38:00.063Z,84.60
2017-10-30T16:40:29.320Z,84.50
2017-10-30T16:42:58.571Z,85.30
2017-10-30T16:45:27.846Z,85.10
2017-10-30T16:47:57.207Z,86.00
2017-10-30T16:50:27.834Z,86.50
2017-10-30T16:52:57.361Z,86.80
2017-10-30T16:55:26.626Z,87.70
2017-10-30T16:57:56.510Z,88.10
2017-10-30T17:00:25.783Z,88.80
2017-10-30T17:02:55.043Z,89.80
2017-10-30T17:05:24.417Z,90.10
2017-10-30T17:07:53.651Z,90.40
2017-10-30T17:10:23.309Z,90.60
2017-10-30T17:12:52.556Z,91.20
2017-10-30T17:15:22.570Z,91.40
2017-10-30T17:17:51.917Z,91.90
2017-10-30T17:20:21.320Z,92.10
2017-10-30T17:22:50.568Z,92.20
2017-10-30T17:25:19.810Z,92.30
2017-10-30T17:27:49.849Z,92.80
2017-10-30T17:30:19.097Z,92.80
2017-10-30T17:32:48.367Z,93.10
2017-10-30T17:35:17.626Z,93.20
2017-10-30T17:37:46.869Z,93.50
2017-10-30T17:40:16.126Z,93.70
2017-10-30T17:42:45.555Z,94.40
2017-10-30T17:45:15.599Z,94.50
2017-10-30T17:47:44.838Z,94.50
2017-10-30T17:50:15.598Z,94.70
2017-10-30T17:52:44.864Z,94.40
2017-10-30T17:55:14.119Z,94.40
2017-10-30T17:57:43.374Z,94.50
2017-10-30T18:00:12.626Z,94.60
2017-10-30T18:02:41.879Z,94.70
2017-10-30T18:05:11.108Z,94.80
2017-10-30T18:07:41.213Z,95.10
2017-10-30T18:10:11.286Z,95.20
2017-10-30T18:12:40.735Z,95.20
2017-10-30T18:15:10.009Z,95.40
2017-10-30T18:17:39.472Z,95.40
2017-10-30T18:20:09.467Z,99.00
2017-10-30T18:22:38.759Z,99.90
2017-10-30T18:25:08.018Z,99.70
2017-10-30T18:27:37.491Z,98.40
2017-10-30T18:30:07.717Z,97.70
2017-10-30T18:32:37.074Z,98.70
2017-10-30T18:35:06.533Z,97.90
2017-10-30T18:37:35.822Z,98.50
2017-10-30T18:40:08.321Z,97.80
2017-10-30T18:42:37.609Z,99.30
2017-10-30T18:45:06.858Z,99.10
2017-10-30T18:47:36.119Z,99.30
2017-10-30T18:50:05.603Z,99.40
2017-10-30T18:52:35.767Z,98.70
2017-10-30T18:55:05.038Z,97.80
2017-10-30T18:57:35.043Z,97.50
2017-10-30T19:00:04.329Z,97.50
2017-10-30T19:02:33.570Z,97.60
2017-10-30T19:05:03.058Z,97.80
2017-10-30T19:07:33.121Z,97.90
2017-10-30T19:10:02.687Z,97.90
2017-10-30T19:12:32.799Z,98.10
2017-10-30T19:15:02.870Z,98.20
2017-10-30T19:17:32.134Z,98.20
2017-10-30T19:20:01.526Z,98.30
2017-10-30T19:22:31.589Z,98.70
2017-10-30T19:25:00.818Z,98.50
2017-10-30T19:27:30.058Z,98.60
2017-10-30T19:29:59.333Z,98.70
2017-10-30T19:32:28.631Z,98.90
2017-10-30T19:34:57.919Z,98.80
2017-10-30T19:37:27.365Z,98.90
2017-10-30T19:39:56.838Z,99.00
2017-10-30T19:42:26.094Z,98.90
2017-10-30T19:44:55.414Z,99.00
2017-10-30T19:47:24.774Z,99.00
2017-10-30T19:49:55.203Z,99.00
2017-10-30T19:52:26.027Z,99.10
2017-10-30T19:54:56.057Z,99.10
2017-10-30T19:57:25.454Z,99.10
2017-10-30T19:59:55.019Z,99.10
2017-10-30T20:02:24.277Z,99.20
2017-10-30T20:04:53.571Z,99.30
2017-10-30T20:07:28.493Z,99.10
2017-10-30T20:10:03.083Z,99.20
2017-10-30T20:12:32.540Z,99.30
2017-10-30T20:15:01.790Z,99.50
2017-10-30T20:17:31.053Z,99.50
2017-10-30T20:20:00.483Z,99.50
2017-10-30T20:22:29.726Z,99.70
2017-10-30T20:24:59.771Z,99.50
2017-10-30T20:27:29.014Z,99.50
2017-10-30T20:29:58.337Z,99.50
2017-10-30T20:32:27.618Z,99.60
2017-10-30T20:34:57.054Z,99.60
2017-10-30T20:37:27.086Z,99.80
2017-10-30T20:39:56.321Z,99.50
2017-10-30T20:42:25.589Z,99.30
2017-10-30T20:44:55.645Z,99.30
2017-10-30T20:47:24.910Z,99.30
2017-10-30T20:49:54.155Z,99.20
2017-10-30T20:52:23.421Z,99.20
2017-10-30T20:54:52.687Z,99.20
2017-10-30T20:57:21.975Z,99.30
2017-10-30T20:59:52.013Z,99.20
2017-10-30T21:02:22.046Z,99.40
2017-10-30T21:04:51.344Z,99.30
2017-10-30T21:07:20.605Z,99.30
2017-10-30T21:09:49.866Z,99.30
2017-10-30T21:12:19.115Z,99.50
2017-10-30T21:14:48.438Z,99.60
2017-10-30T21:17:17.666Z,99.60
2017-10-30T21:19:46.943Z,99.60
2017-10-30T21:22:16.326Z,99.60
2017-10-30T21:24:45.590Z,99.70
2017-10-30T21:27:14.856Z,99.50
2017-10-30T21:29:44.463Z,99.50
2017-10-30T21:32:13.691Z,99.60
2017-10-30T21:34:43.043Z,99.20
2017-10-30T21:37:13.075Z,99.10
2017-10-30T21:39:42.470Z,99.10
2017-10-30T21:42:12.488Z,99.00
2017-10-30T21:44:42.604Z,99.00
2017-10-30T21:47:11.860Z,99.00
2017-10-30T21:49:41.147Z,98.90
2017-10-30T21:52:10.391Z,98.80
2017-10-30T21:54:39.671Z,98.90
2017-10-30T21:57:08.924Z,98.90
2017-10-30T21:59:38.943Z,98.90
2017-10-30T22:02:08.206Z,98.90
2017-10-30T22:04:37.497Z,98.90
2017-10-30T22:07:06.949Z,98.90
2017-10-30T22:09:36.223Z,98.90
2017-10-30T22:12:05.658Z,98.70
2017-10-30T22:14:34.862Z,98.90
2017-10-30T22:17:04.118Z,98.80
2017-10-30T22:19:33.602Z,98.80
2017-10-30T22:22:02.857Z,98.80
2017-10-30T22:24:32.123Z,98.90
2017-10-30T22:27:01.380Z,99.10
2017-10-30T22:29:30.857Z,99.50
2017-10-30T22:32:00.869Z,99.60
2017-10-30T22:34:30.131Z,99.60
2017-10-30T22:36:59.401Z,99.80
2017-10-30T22:39:28.657Z,99.60
2017-10-30T22:41:57.918Z,99.40
2017-10-30T22:44:27.189Z,99.40
2017-10-30T22:46:56.414Z,99.60
2017-10-30T22:49:25.671Z,99.50
2017-10-30T22:51:55.697Z,99.40
2017-10-30T22:54:24.971Z,99.40
2017-10-30T22:56:54.273Z,99.20
2017-10-30T22:59:23.493Z,99.10
2017-10-30T23:01:53.523Z,99.10
2017-10-30T23:04:22.758Z,99.10
2017-10-30T23:06:52.050Z,99.00
2017-10-30T23:09:21.294Z,99.10
2017-10-30T23:11:50.547Z,99.10
2017-10-30T23:14:19.798Z,99.20
2017-10-30T23:16:49.752Z,99.10
2017-10-30T23:19:19.022Z,99.10
2017-10-30T23:21:48.271Z,99.20
2017-10-30T23:24:17.534Z,99.20
2017-10-30T23:26:47.538Z,99.20
2017-10-30T23:29:16.802Z,99.20
2017-10-30T23:31:46.102Z,99.50
2017-10-30T23:34:16.086Z,99.60
2017-10-30T23:36:45.394Z,99.60
2017-10-30T23:39:14.650Z,99.70
2017-10-30T23:41:43.899Z,99.70
2017-10-30T23:44:13.164Z,99.70
2017-10-30T23:46:43.231Z,99.60
2017-10-30T23:49:12.494Z,99.60
2017-10-30T23:51:41.880Z,99.40
2017-10-30T23:54:11.142Z,99.30
2017-10-30T23:56:40.387Z,99.30
2017-10-30T23:59:09.643Z,99.20
